Time,TemperatureF,DewpointF,PressureIn,WindDirection,WindDirectionDegrees,WindSpeedMPH,WindSpeedGustMPH,Humidity,HourlyPrecipIn,Conditions,Clouds,dailyrainin,SolarRadiationWatts/m^2,SoftwareType,DateUTC
2013-10-06 00:03:00,50.0,47.0,-100.00,SSW,200,2.0,3.0,90,0.00,,,0.04,0.000000,,2013-10-06 05:03:00,
2013-10-06 01:42:00,50.0,46.0,-100.00,WNW,292,7.0,10.0,85,-99.99,,,0.04,0.000000,,2013-10-06 06:42:00,
2013-10-06 01:52:00,50.0,46.0,-100.00,WNW,292,7.0,10.0,85,-99.99,,,0.04,0.000000,,2013-10-06 06:52:00,
2013-10-06 02:02:00,50.0,46.0,-100.00,WNW,292,7.0,10.0,85,-99.99,,,0.04,0.000000,,2013-10-06 07:02:00,
2013-10-06 02:43:00,49.0,46.0,-100.00,NW,310,7.0,10.0,89,0.00,,,0.04,0.000000,,2013-10-06 07:43:00,
2013-10-06 02:52:00,49.0,46.0,-100.00,NW,310,7.0,10.0,89,0.00,,,0.04,0.000000,,2013-10-06 07:52:00,
2013-10-06 03:02:00,49.0,46.0,-100.00,NW,310,7.0,10.0,89,0.00,,,0.04,0.000000,,2013-10-06 08:02:00,
2013-10-06 03:42:00,49.0,46.0,-100.00,WNW,284,7.0,9.0,88,0.00,,,0.04,0.000000,,2013-10-06 08:42:00,
2013-10-06 03:53:00,49.0,46.0,-100.00,WNW,284,7.0,9.0,88,0.00,,,0.04,0.000000,,2013-10-06 08:53:00,
2013-10-06 04:01:00,49.0,46.0,-100.00,WNW,284,7.0,9.0,88,0.00,,,0.04,0.000000,,2013-10-06 09:01:00,
2013-10-06 04:43:00,49.0,46.0,-100.00,West,275,8.0,10.0,89,0.00,,,0.04,0.000000,,2013-10-06 09:43:00,
2013-10-06 04:53:00,49.0,46.0,-100.00,West,275,8.0,10.0,89,0.00,,,0.04,0.000000,,2013-10-06 09:53:00,
2013-10-06 05:03:00,49.0,46.0,-100.00,West,275,8.0,10.0,89,0.00,,,0.04,0.000000,,2013-10-06 10:03:00,
2013-10-06 05:43:00,48.0,46.0,-100.00,WNW,288,8.0,10.0,92,0.00,,,0.04,0.000000,,2013-10-06 10:43:00,
2013-10-06 05:53:00,48.0,46.0,-100.00,WNW,288,8.0,10.0,92,0.00,,,0.04,0.000000,,2013-10-06 10:53:00,
2013-10-06 06:02:00,48.0,46.0,-100.00,WNW,288,8.0,10.0,92,0.00,,,0.04,0.000000,,2013-10-06 11:02:00,
2013-10-06 06:42:00,47.0,45.0,-100.00,WNW,292,7.0,11.0,92,0.00,,,0.04,0.000000,,2013-10-06 11:42:00,
2013-10-06 06:52:00,47.0,45.0,-100.00,WNW,292,7.0,11.0,92,0.00,,,0.04,0.000000,,2013-10-06 11:52:00,
2013-10-06 07:02:00,47.0,45.0,-100.00,WNW,292,7.0,11.0,92,0.00,,,0.04,0.000000,,2013-10-06 12:02:00,
2013-10-06 07:42:00,46.0,44.0,-100.00,West,275,8.0,11.0,91,0.00,,,0.04,0.000000,,2013-10-06 12:42:00,
2013-10-06 07:52:00,46.0,44.0,-100.00,West,275,8.0,11.0,91,0.00,,,0.04,0.000000,,2013-10-06 12:52:00,
2013-10-06 08:02:00,46.0,44.0,-100.00,West,275,8.0,11.0,91,0.00,,,0.04,0.000000,,2013-10-06 13:02:00,
2013-10-06 08:42:00,47.0,45.0,-100.00,West,281,8.0,11.0,91,0.00,,,0.04,19.000000,,2013-10-06 13:42:00,
2013-10-06 08:52:00,47.0,45.0,-100.00,West,281,8.0,11.0,91,0.00,,,0.04,19.000000,,2013-10-06 13:52:00,
2013-10-06 09:02:00,47.0,45.0,-100.00,West,281,8.0,11.0,91,0.00,,,0.04,19.000000,,2013-10-06 14:02:00,
2013-10-06 09:42:00,50.0,46.0,-100.00,WNW,293,7.0,11.0,86,0.00,,,0.04,212.000000,,2013-10-06 14:42:00,
2013-10-06 09:52:00,50.0,46.0,-100.00,WNW,293,7.0,11.0,86,0.00,,,0.04,212.000000,,2013-10-06 14:52:00,
2013-10-06 10:02:00,50.0,46.0,-100.00,WNW,293,7.0,11.0,86,0.00,,,0.04,212.000000,,2013-10-06 15:02:00,
2013-10-06 10:44:00,57.0,50.0,-100.00,WNW,299,8.0,11.0,78,0.00,,,0.04,438.000000,,2013-10-06 15:44:00,
2013-10-06 10:54:00,57.0,50.0,-100.00,WNW,299,8.0,11.0,78,0.00,,,0.04,438.000000,,2013-10-06 15:54:00,
2013-10-06 11:03:00,57.0,50.0,-100.00,WNW,299,8.0,11.0,78,0.00,,,0.04,438.000000,,2013-10-06 16:03:00,
2013-10-06 11:43:00,64.0,48.0,-100.00,NW,305,11.0,15.0,56,0.00,,,0.04,670.000000,,2013-10-06 16:43:00,
2013-10-06 11:53:00,64.0,48.0,-100.00,NW,305,11.0,15.0,56,0.00,,,0.04,670.000000,,2013-10-06 16:53:00,
2013-10-06 12:02:00,64.0,48.0,-100.00,NW,305,11.0,15.0,56,0.00,,,0.04,670.000000,,2013-10-06 17:02:00,
2013-10-06 12:42:00,71.0,44.0,-100.00,NW,326,11.0,16.0,38,0.00,,,0.04,831.000000,,2013-10-06 17:42:00,
2013-10-06 12:52:00,71.0,44.0,-100.00,NW,326,11.0,16.0,38,0.00,,,0.04,831.000000,,2013-10-06 17:52:00,
2013-10-06 13:02:00,71.0,44.0,-100.00,NW,326,11.0,16.0,38,0.00,,,0.04,831.000000,,2013-10-06 18:02:00,
2013-10-06 13:43:00,74.0,41.0,-100.00,NNW,333,11.0,22.0,31,0.00,,,0.04,927.000000,,2013-10-06 18:43:00,
2013-10-06 13:52:00,74.0,41.0,-100.00,NNW,333,11.0,22.0,31,0.00,,,0.04,927.000000,,2013-10-06 18:52:00,
2013-10-06 14:01:00,74.0,41.0,-100.00,NNW,333,11.0,22.0,31,0.00,,,0.04,927.000000,,2013-10-06 19:01:00,
2013-10-06 14:42:00,75.0,35.0,-100.00,NNW,335,12.0,20.0,23,0.00,,,0.04,952.000000,,2013-10-06 19:42:00,
2013-10-06 14:53:00,75.0,35.0,-100.00,NNW,335,12.0,20.0,23,0.00,,,0.04,952.000000,,2013-10-06 19:53:00,
2013-10-06 15:02:00,75.0,35.0,-100.00,NNW,335,12.0,20.0,23,0.00,,,0.04,952.000000,,2013-10-06 20:02:00,
2013-10-06 15:42:00,76.0,31.0,-100.00,NNW,343,10.0,18.0,19,0.00,,,0.04,897.000000,,2013-10-06 20:42:00,
2013-10-06 15:52:00,76.0,31.0,-100.00,NNW,343,10.0,18.0,19,0.00,,,0.04,897.000000,,2013-10-06 20:52:00,
2013-10-06 16:01:00,76.0,31.0,-100.00,NNW,343,10.0,18.0,19,0.00,,,0.04,897.000000,,2013-10-06 21:01:00,
2013-10-06 16:44:00,77.0,29.0,-100.00,NNW,346,10.0,15.0,17,0.00,,,0.04,772.000000,,2013-10-06 21:44:00,
2013-10-06 16:55:00,77.0,29.0,-100.00,NNW,346,10.0,15.0,17,0.00,,,0.04,772.000000,,2013-10-06 21:55:00,
2013-10-06 17:04:00,77.0,29.0,-100.00,NNW,346,10.0,15.0,17,0.00,,,0.04,772.000000,,2013-10-06 22:04:00,
2013-10-06 17:43:00,78.0,28.0,-100.00,NNW,333,10.0,15.0,16,0.00,,,0.04,586.000000,,2013-10-06 22:43:00,
2013-10-06 17:54:00,78.0,28.0,-100.00,NNW,333,10.0,15.0,16,0.00,,,0.04,586.000000,,2013-10-06 22:54:00,
2013-10-06 18:03:00,78.0,28.0,-100.00,NNW,333,10.0,15.0,16,0.00,,,0.04,586.000000,,2013-10-06 23:03:00,
2013-10-06 18:42:00,76.0,29.0,-100.00,North,351,7.0,15.0,18,0.00,,,0.04,357.000000,,2013-10-06 23:42:00,
2013-10-06 18:53:00,76.0,29.0,-100.00,North,351,7.0,15.0,18,0.00,,,0.04,357.000000,,2013-10-06 23:53:00,
2013-10-06 19:02:00,76.0,29.0,-100.00,North,351,7.0,15.0,18,0.00,,,0.04,357.000000,,2013-10-07 00:02:00,
2013-10-06 19:42:00,73.0,33.0,-100.00,NNE,12,4.0,12.0,23,0.00,,,0.00,119.000000,,2013-10-07 00:42:00,
2013-10-06 19:52:00,73.0,33.0,-100.00,NNE,12,4.0,12.0,23,0.00,,,0.00,119.000000,,2013-10-07 00:52:00,
2013-10-06 20:02:00,73.0,33.0,-100.00,NNE,12,4.0,12.0,23,0.00,,,0.00,119.000000,,2013-10-07 01:02:00,
2013-10-06 20:42:00,69.0,35.0,-100.00,NE,45,4.0,6.0,29,0.00,,,0.00,2.000000,,2013-10-07 01:42:00,
2013-10-06 20:53:00,69.0,35.0,-100.00,NE,45,4.0,6.0,29,0.00,,,0.00,2.000000,,2013-10-07 01:53:00,
2013-10-06 21:02:00,69.0,35.0,-100.00,NE,45,4.0,6.0,29,0.00,,,0.00,2.000000,,2013-10-07 02:02:00,
2013-10-06 21:42:00,62.0,35.0,-100.00,SSE,149,0.0,5.0,37,0.00,,,0.00,0.000000,,2013-10-07 02:42:00,
2013-10-06 21:53:00,62.0,35.0,-100.00,SSE,149,0.0,5.0,37,0.00,,,0.00,0.000000,,2013-10-07 02:53:00,
2013-10-06 22:02:00,62.0,35.0,-100.00,SSE,149,0.0,5.0,37,0.00,,,0.00,0.000000,,2013-10-07 03:02:00,
2013-10-06 22:44:00,57.0,40.0,-100.00,SE,145,3.0,5.0,53,0.00,,,0.00,0.000000,,2013-10-07 03:44:00,
2013-10-06 22:54:00,57.0,40.0,-100.00,SE,145,3.0,5.0,53,0.00,,,0.00,0.000000,,2013-10-07 03:54:00,
2013-10-06 23:04:00,57.0,40.0,-100.00,SE,145,3.0,5.0,53,0.00,,,0.00,0.000000,,2013-10-07 04:04:00,
2013-10-06 23:44:00,54.0,37.0,-100.00,SSE,147,0.0,5.0,52,0.00,,,0.00,0.000000,,2013-10-07 04:44:00,
2013-10-06 23:53:00,54.0,37.0,-100.00,SSE,147,0.0,5.0,52,0.00,,,0.00,0.000000,,2013-10-07 04:53:00,